TimeEST,TemperatureF,Dew PointF,Humidity,Sea Level PressureIn,VisibilityMPH,Wind Direction,Wind SpeedMPH,Gust SpeedMPH,PrecipitationIn,Events,Conditions,WindDirDegrees,DateUTC
12:15 AM,24.8,19.4,80,-9999,10.0,Calm,Calm,-,N/A,,Clear,0,2012-11-18 05:15:00
12:35 AM,24.8,19.4,80,-9999,10.0,NNE,4.6,-,N/A,,Clear,20,2012-11-18 05:35:00
12:55 AM,26.6,17.6,69,-9999,10.0,North,3.5,-,N/A,,Clear,10,2012-11-18 05:55:00
1:15 AM,26.6,15.8,64,-9999,10.0,NNE,4.6,-,N/A,,Clear,30,2012-11-18 06:15:00
1:35 AM,24.8,21.2,86,-9999,10.0,Calm,Calm,-,N/A,,Clear,0,2012-11-18 06:35:00
1:55 AM,23.0,19.4,86,-9999,10.0,Calm,Calm,-,N/A,,Clear,0,2012-11-18 06:55:00
2:15 AM,23.0,19.4,86,-9999,10.0,Calm,Calm,-,N/A,,Clear,0,2012-11-18 07:15:00
2:35 AM,21.2,19.4,93,-9999,10.0,NNW,4.6,-,N/A,,Clear,330,2012-11-18 07:35:00
2:55 AM,21.2,19.4,93,-9999,10.0,Calm,Calm,-,N/A,,Clear,0,2012-11-18 07:55:00
3:15 AM,23.0,19.4,86,-9999,10.0,Calm,Calm,-,N/A,,Clear,0,2012-11-18 08:15:00
3:35 AM,21.2,17.6,86,-9999,10.0,North,-9999.0,-,N/A,,Clear,0,2012-11-18 08:35:00
3:55 AM,21.2,19.4,93,-9999,10.0,Calm,Calm,-,N/A,,Clear,0,2012-11-18 08:55:00
4:15 AM,21.2,19.4,93,-9999,10.0,Calm,Calm,-,N/A,,Clear,0,2012-11-18 09:15:00
4:35 AM,21.2,17.6,86,-9999,10.0,Calm,Calm,-,N/A,,Clear,0,2012-11-18 09:35:00
4:55 AM,21.2,19.4,93,-9999,10.0,Calm,Calm,-,N/A,,Clear,0,2012-11-18 09:55:00
5:15 AM,23.0,17.6,80,-9999,10.0,NNE,5.8,-,N/A,,Clear,20,2012-11-18 10:15:00
5:35 AM,24.8,15.8,69,-9999,10.0,North,8.1,-,N/A,,Clear,360,2012-11-18 10:35:00
5:55 AM,24.8,15.8,69,-9999,10.0,North,8.1,-,N/A,,Clear,10,2012-11-18 10:55:00
6:15 AM,23.0,17.6,80,-9999,10.0,Calm,Calm,-,N/A,,Clear,0,2012-11-18 11:15:00
6:35 AM,21.2,17.6,86,-9999,10.0,North,6.9,-,N/A,,Clear,10,2012-11-18 11:35:00
7:15 AM,21.2,17.6,86,-9999,10.0,Calm,Calm,-,N/A,,Clear,0,2012-11-18 12:15:00
7:35 AM,21.2,19.4,93,-9999,10.0,Calm,Calm,-,N/A,,Clear,0,2012-11-18 12:35:00
7:55 AM,24.8,17.6,74,-9999,10.0,Calm,Calm,-,N/A,,Clear,0,2012-11-18 12:55:00
8:15 AM,24.8,19.4,80,-9999,10.0,Calm,Calm,-,N/A,,Clear,0,2012-11-18 13:15:00
8:35 AM,26.6,21.2,80,-9999,10.0,Calm,Calm,-,N/A,,Clear,0,2012-11-18 13:35:00
8:56 AM,30.2,19.4,64,-9999,10.0,Calm,Calm,-,N/A,,Clear,0,2012-11-18 13:56:00
9:15 AM,32.0,19.4,60,-9999,10.0,Calm,Calm,-,N/A,,Clear,0,2012-11-18 14:15:00
9:35 AM,33.8,17.6,52,-9999,10.0,North,3.5,-,N/A,,Clear,360,2012-11-18 14:35:00
9:55 AM,35.6,17.6,48,-9999,10.0,North,3.5,-,N/A,,Clear,360,2012-11-18 14:55:00
10:15 AM,35.6,17.6,48,-9999,10.0,NNW,3.5,-,N/A,,Clear,340,2012-11-18 15:15:00
10:35 AM,35.6,12.2,38,-9999,10.0,ENE,4.6,-,N/A,,Clear,70,2012-11-18 15:35:00
10:55 AM,35.6,14.0,41,-9999,10.0,NE,5.8,-,N/A,,Clear,40,2012-11-18 15:55:00
11:15 AM,37.4,15.8,41,-9999,10.0,NNE,4.6,-,N/A,,Clear,30,2012-11-18 16:15:00
11:35 AM,37.4,15.8,41,-9999,10.0,East,4.6,-,N/A,,Clear,80,2012-11-18 16:35:00
11:55 AM,37.4,17.6,45,-9999,10.0,North,5.8,-,N/A,,Clear,360,2012-11-18 16:55:00
12:35 PM,39.2,17.6,42,-9999,10.0,NE,4.6,-,N/A,,Clear,50,2012-11-18 17:35:00
12:55 PM,39.2,17.6,42,-9999,10.0,North,4.6,-,N/A,,Clear,10,2012-11-18 17:55:00
1:15 PM,41.0,17.6,39,30.67,10.0,WNW,3.5,-,N/A,,Clear,300,2012-11-18 18:15:00
1:35 PM,41.0,17.6,39,30.67,10.0,NNE,5.8,-,N/A,,Clear,20,2012-11-18 18:35:00
1:55 PM,41.0,17.6,39,30.66,10.0,NNE,4.6,-,N/A,,Clear,30,2012-11-18 18:55:00
2:15 PM,41.0,17.6,39,30.66,10.0,NNE,3.5,-,N/A,,Clear,30,2012-11-18 19:15:00
2:35 PM,41.0,17.6,39,30.66,10.0,Calm,Calm,-,N/A,,Clear,0,2012-11-18 19:35:00
2:55 PM,41.0,17.6,39,30.66,10.0,ENE,3.5,-,N/A,,Clear,60,2012-11-18 19:55:00
3:15 PM,41.0,17.6,39,30.66,10.0,Calm,Calm,-,N/A,,Clear,0,2012-11-18 20:15:00
3:35 PM,41.0,17.6,39,30.65,10.0,Calm,Calm,-,N/A,,Clear,0,2012-11-18 20:35:00
3:55 PM,39.2,17.6,42,30.65,10.0,Calm,Calm,-,N/A,,Clear,0,2012-11-18 20:55:00
4:15 PM,37.4,15.8,41,30.65,10.0,Calm,Calm,-,N/A,,Clear,0,2012-11-18 21:15:00
4:35 PM,33.8,19.4,56,30.65,10.0,Calm,Calm,-,N/A,,Clear,0,2012-11-18 21:35:00
4:55 PM,30.2,19.4,64,30.65,10.0,NNW,3.5,-,N/A,,Clear,330,2012-11-18 21:55:00
5:15 PM,33.8,17.6,52,30.65,10.0,North,3.5,-,N/A,,Clear,360,2012-11-18 22:15:00
5:35 PM,30.2,17.6,60,30.65,10.0,Calm,Calm,-,N/A,,Clear,0,2012-11-18 22:35:00
5:55 PM,30.2,17.6,60,30.66,10.0,North,3.5,-,N/A,,Clear,360,2012-11-18 22:55:00
6:15 PM,30.2,17.6,60,30.66,10.0,Calm,Calm,-,N/A,,Clear,0,2012-11-18 23:15:00
6:35 PM,28.4,17.6,64,30.66,10.0,Calm,Calm,-,N/A,,Clear,0,2012-11-18 23:35:00
6:55 PM,28.4,19.4,69,30.66,10.0,Calm,Calm,-,N/A,,Clear,0,2012-11-18 23:55:00
7:15 PM,28.4,17.6,64,30.66,10.0,Calm,Calm,-,N/A,,Clear,0,2012-11-19 00:15:00
7:35 PM,28.4,17.6,64,30.66,10.0,Calm,Calm,-,N/A,,Clear,0,2012-11-19 00:35:00
7:55 PM,28.4,17.6,64,30.65,10.0,Calm,Calm,-,N/A,,Clear,0,2012-11-19 00:55:00
8:15 PM,28.4,17.6,64,30.65,10.0,Calm,Calm,-,N/A,,Clear,0,2012-11-19 01:15:00
8:35 PM,26.6,17.6,69,30.65,10.0,North,3.5,-,N/A,,Clear,10,2012-11-19 01:35:00
8:55 PM,26.6,19.4,74,30.64,10.0,Calm,Calm,-,N/A,,Clear,0,2012-11-19 01:55:00
9:15 PM,26.6,19.4,74,30.64,10.0,Calm,Calm,-,N/A,,Clear,0,2012-11-19 02:15:00
9:35 PM,24.8,17.6,74,30.64,10.0,Calm,Calm,-,N/A,,Clear,0,2012-11-19 02:35:00
9:55 PM,24.8,17.6,74,30.64,10.0,Calm,Calm,-,N/A,,Clear,0,2012-11-19 02:55:00
10:15 PM,24.8,17.6,74,30.63,10.0,North,3.5,-,N/A,,Clear,10,2012-11-19 03:15:00
10:35 PM,24.8,19.4,80,30.63,10.0,Calm,Calm,-,N/A,,Clear,0,2012-11-19 03:35:00
10:55 PM,23.0,17.6,80,30.63,10.0,Calm,Calm,-,N/A,,Clear,0,2012-11-19 03:55:00
11:15 PM,24.8,17.6,74,30.63,10.0,Calm,Calm,-,N/A,,Clear,0,2012-11-19 04:15:00
11:35 PM,23.0,19.4,86,30.63,10.0,Calm,Calm,-,N/A,,Clear,0,2012-11-19 04:35:00